Time;durP1;ratioP1;P1;durP2;ratioP2;P2;SDS_P1;SDS_P2;PMS_P1;PMS_P2;Temp;Humidity;BMP_temperature;BMP_pressure;BME280_temperature;BME280_humidity;BME280_pressure;Samples;Min_cycle;Max_cycle;Signal;HPM_P1;HPM_P2
2022/05/02 00:00:50;;;;;;;24.58;22.08;;;15.70;73.00;;;;;;5035021;28;20391;-62
2022/05/02 00:03:16;;;;;;;25.55;23.05;;;15.70;73.00;;;;;;5035314;28;20151;-62
2022/05/02 00:05:42;;;;;;;25.92;23.00;;;15.70;73.10;;;;;;5035294;28;20021;-62
2022/05/02 00:08:08;;;;;;;25.20;22.70;;;15.70;73.10;;;;;;5035234;28;20029;-62
2022/05/02 00:10:34;;;;;;;27.20;24.50;;;15.60;73.20;;;;;;5035246;28;20025;-61
2022/05/02 00:13:03;;;;;;;24.42;21.95;;;15.60;73.00;;;;;;5035018;28;20028;-55
2022/05/02 00:15:29;;;;;;;25.30;22.70;;;15.60;73.20;;;;;;5034726;28;20178;-63
2022/05/02 00:17:59;;;;;;;27.10;23.40;;;15.60;73.30;;;;;;5035112;28;20443;-62
2022/05/02 00:20:36;;;;;;;26.27;22.20;;;15.50;73.50;;;;;;5035019;28;20040;-61
2022/05/02 00:23:04;;;;;;;25.65;22.98;;;15.50;73.50;;;;;;5034838;28;20471;-55
2022/05/02 00:25:30;;;;;;;25.27;22.65;;;15.50;73.40;;;;;;5034997;28;20060;-62
2022/05/02 00:27:57;;;;;;;25.88;23.38;;;15.50;73.40;;;;;;5034678;28;20061;-62
2022/05/02 00:30:22;;;;;;;25.45;22.88;;;15.50;73.40;;;;;;5034529;28;20033;-58
2022/05/02 00:32:48;;;;;;;25.60;23.05;;;15.50;73.30;;;;;;5034700;28;20021;-58
2022/05/02 00:35:15;;;;;;;25.73;23.13;;;15.50;73.30;;;;;;5034706;28;20033;-61
2022/05/02 00:37:42;;;;;;;27.13;23.10;;;15.50;73.30;;;;;;5034545;28;20055;-58
2022/05/02 00:40:10;;;;;;;26.45;23.65;;;15.50;73.10;;;;;;5034794;28;20017;-63
2022/05/02 00:42:36;;;;;;;25.20;22.50;;;15.40;73.20;;;;;;5034278;28;20432;-60
2022/05/02 00:45:05;;;;;;;26.30;23.33;;;15.40;73.20;;;;;;5034524;28;20528;-61
2022/05/02 00:47:31;;;;;;;25.25;22.85;;;15.40;73.10;;;;;;5034624;28;20048;-62
2022/05/02 00:49:56;;;;;;;27.92;23.83;;;15.40;73.10;;;;;;5034602;28;20395;-58
2022/05/02 00:52:22;;;;;;;24.38;21.88;;;15.40;73.20;;;;;;5034233;28;20030;-61
2022/05/02 00:54:47;;;;;;;25.02;22.48;;;15.30;72.90;;;;;;5034384;28;20027;-62
2022/05/02 00:57:14;;;;;;;26.08;23.42;;;15.30;72.80;;;;;;5034099;28;20042;-61
2022/05/02 00:59:41;;;;;;;25.45;22.90;;;15.30;73.10;;;;;;5034102;28;20483;-61
2022/05/02 01:02:09;;;;;;;25.83;23.23;;;15.30;73.20;;;;;;5034222;28;20029;-63
2022/05/02 01:04:36;;;;;;;25.40;22.75;;;15.30;73.20;;;;;;5034192;28;20449;-62
2022/05/02 01:07:11;;;;;;;26.33;23.52;;;15.30;73.30;;;;;;5034311;28;20021;-63
2022/05/02 01:09:45;;;;;;;25.13;22.40;;;15.20;73.40;;;;;;5034560;28;20025;-63
2022/05/02 01:12:14;;;;;;;24.85;22.25;;;15.20;73.10;;;;;;5034144;28;20029;-62
2022/05/02 01:14:41;;;;;;;26.50;21.83;;;15.20;73.20;;;;;;5033662;28;20017;-58
2022/05/02 01:17:07;;;;;;;25.85;22.92;;;15.20;73.20;;;;;;5033895;28;20061;-62
2022/05/02 01:19:34;;;;;;;25.50;23.00;;;15.20;73.10;;;;;;5033912;28;20045;-63
2022/05/02 01:22:00;;;;;;;25.92;23.25;;;15.10;73.00;;;;;;5033451;28;20104;-62
2022/05/02 01:24:52;;;;;;;25.10;22.55;;;15.10;73.10;;;;;;5033817;28;20109;-62
2022/05/02 01:27:17;;;;;;;25.05;22.55;;;15.10;73.00;;;;;;5034235;28;20572;-61
2022/05/02 01:29:45;;;;;;;24.25;21.75;;;15.10;73.00;;;;;;5033490;28;20017;-62
2022/05/02 01:32:15;;;;;;;24.35;21.85;;;15.00;73.00;;;;;;5033582;28;20028;-61
2022/05/02 01:34:42;;;;;;;25.90;23.25;;;15.10;73.10;;;;;;5033341;28;20025;-59
2022/05/02 01:37:09;;;;;;;26.35;22.80;;;15.10;73.30;;;;;;5033561;28;20029;-56
2022/05/02 01:39:35;;;;;;;25.15;22.50;;;15.00;73.30;;;;;;5033665;28;20067;-62
2022/05/02 01:42:02;;;;;;;28.33;23.77;;;15.00;73.30;;;;;;5033548;28;20033;-62
2022/05/02 01:44:28;;;;;;;25.45;22.75;;;15.00;73.40;;;;;;5033196;28;20068;-62
2022/05/02 01:46:54;;;;;;;25.13;22.58;;;15.00;73.20;;;;;;5033396;28;20025;-63
2022/05/02 01:49:20;;;;;;;24.80;22.27;;;15.00;73.20;;;;;;5033171;28;20021;-62
2022/05/02 01:51:46;;;;;;;24.90;22.30;;;15.00;73.20;;;;;;5033552;28;20030;-62
2022/05/02 01:54:11;;;;;;;26.60;22.98;;;14.90;73.20;;;;;;5033248;28;20027;-61
2022/05/02 01:56:37;;;;;;;25.95;23.08;;;14.90;73.30;;;;;;5033305;28;20391;-62
2022/05/02 01:59:04;;;;;;;25.17;22.58;;;14.90;73.50;;;;;;5033083;28;20055;-61
2022/05/02 02:01:30;;;;;;;24.50;21.90;;;14.80;73.30;;;;;;5033047;28;20025;-62
2022/05/02 02:03:55;;;;;;;27.60;23.30;;;14.80;73.40;;;;;;5033183;28;20036;-62
2022/05/02 02:06:24;;;;;;;25.58;22.42;;;14.80;73.30;;;;;;5033259;28;20053;-63
2022/05/02 02:08:50;;;;;;;25.70;23.02;;;14.80;73.40;;;;;;5033199;28;20026;-62
2022/05/02 02:11:16;;;;;;;24.38;21.88;;;14.80;73.40;;;;;;5032872;28;20433;-61
2022/05/02 02:13:41;;;;;;;29.02;22.70;;;14.80;73.30;;;;;;5033287;28;20486;-58
2022/05/02 02:16:09;;;;;;;24.83;22.23;;;14.80;73.50;;;;;;5032868;28;20061;-61
2022/05/02 02:18:37;;;;;;;26.92;23.92;;;14.80;73.60;;;;;;5033350;28;20022;-62
2022/05/02 02:21:03;;;;;;;25.23;21.70;;;14.80;73.70;;;;;;5032907;28;20438;-58
2022/05/02 02:23:28;;;;;;;25.63;23.05;;;14.70;73.60;;;;;;5033006;28;20045;-62
2022/05/02 02:25:54;;;;;;;25.02;22.60;;;14.70;73.60;;;;;;5032289;28;20033;-62
2022/05/02 02:28:20;;;;;;;25.15;22.38;;;14.70;73.80;;;;;;5032997;28;20041;-62
2022/05/02 02:30:46;;;;;;;25.95;22.60;;;14.60;73.90;;;;;;5032884;28;20032;-61
2022/05/02 02:33:12;;;;;;;26.67;23.73;;;14.60;73.90;;;;;;5033387;28;20434;-62
2022/05/02 02:35:38;;;;;;;24.35;21.90;;;14.70;74.00;;;;;;5012654;28;20046;-62
2022/05/02 02:38:03;;;;;;;24.98;22.40;;;14.60;74.00;;;;;;5017057;28;20021;-61
2022/05/02 02:40:31;;;;;;;26.08;23.38;;;14.60;74.00;;;;;;5015463;28;20486;-63
2022/05/02 02:42:56;;;;;;;26.92;24.23;;;14.50;74.00;;;;;;5016554;28;20029;-62
2022/05/02 02:45:22;;;;;;;26.30;23.67;;;14.50;74.10;;;;;;5016688;28;20383;-63
2022/05/02 02:47:48;;;;;;;24.65;22.10;;;14.50;74.20;;;;;;5017160;28;20018;-63
2022/05/02 02:50:14;;;;;;;23.55;21.17;;;14.50;74.20;;;;;;5016697;28;20069;-62
2022/05/02 02:52:39;;;;;;;25.42;22.77;;;14.50;74.30;;;;;;5016978;28;20045;-62
2022/05/02 02:55:06;;;;;;;26.05;23.35;;;14.50;74.40;;;;;;5016554;28;20030;-59
2022/05/02 02:57:33;;;;;;;26.05;22.85;;;14.40;74.40;;;;;;5016790;28;20168;-58
2022/05/02 02:59:59;;;;;;;27.20;23.42;;;14.50;74.50;;;;;;5016598;28;20026;-61
2022/05/02 03:02:25;;;;;;;26.58;23.60;;;14.40;74.50;;;;;;5016665;28;20028;-62
2022/05/02 03:07:35;;;;;;;24.80;22.25;;;14.40;74.60;;;;;;5016564;28;20498;-63
2022/05/02 03:10:01;;;;;;;25.17;22.58;;;14.30;75.40;;;;;;5016260;28;20034;-57
2022/05/02 03:12:27;;;;;;;24.92;22.20;;;14.30;74.60;;;;;;5016391;28;20096;-62
2022/05/02 03:14:52;;;;;;;25.77;23.17;;;14.30;74.60;;;;;;5016383;28;20108;-62
2022/05/02 03:17:18;;;;;;;25.98;22.95;;;14.30;74.60;;;;;;5016265;28;20030;-60
2022/05/02 03:19:43;;;;;;;25.60;22.45;;;14.30;74.60;;;;;;5016300;28;20084;-57
2022/05/02 03:22:09;;;;;;;26.67;23.83;;;14.30;74.80;;;;;;5016356;28;20072;-62
2022/05/02 03:24:35;;;;;;;25.73;23.08;;;14.20;74.90;;;;;;5016046;28;20033;-63
2022/05/02 03:27:00;;;;;;;25.45;22.75;;;14.30;74.80;;;;;;5014892;28;20376;-62
2022/05/02 03:29:26;;;;;;;29.35;23.15;;;14.20;74.70;;;;;;5015208;28;20022;-61
2022/05/02 03:31:52;;;;;;;25.10;22.50;;;14.20;74.70;;;;;;5014791;28;20022;-62
2022/05/02 03:34:18;;;;;;;26.33;23.48;;;14.10;74.50;;;;;;5015048;28;20037;-63
2022/05/02 03:36:43;;;;;;;25.98;23.27;;;14.10;74.40;;;;;;5014807;28;20037;-62
2022/05/02 03:39:09;;;;;;;27.58;24.58;;;14.10;74.50;;;;;;5014734;28;20387;-59
2022/05/02 03:41:35;;;;;;;25.77;23.15;;;14.00;74.70;;;;;;5014670;28;20391;-62
2022/05/02 03:44:00;;;;;;;27.13;24.33;;;14.00;74.70;;;;;;5014837;28;20105;-62
2022/05/02 03:46:26;;;;;;;25.65;22.80;;;13.90;75.50;;;;;;5014626;28;20372;-63
2022/05/02 03:48:52;;;;;;;26.52;23.67;;;14.00;74.90;;;;;;5014891;28;20029;-61
2022/05/02 03:51:18;;;;;;;26.50;23.73;;;13.90;75.00;;;;;;5014671;28;20356;-63
2022/05/02 03:53:44;;;;;;;26.52;23.85;;;13.90;75.30;;;;;;5014408;28;20104;-61
2022/05/02 03:56:10;;;;;;;26.33;23.48;;;13.90;75.20;;;;;;5014306;28;20487;-58
2022/05/02 03:58:35;;;;;;;26.48;23.35;;;13.90;75.20;;;;;;5014552;28;20510;-62
2022/05/02 04:01:01;;;;;;;27.13;23.92;;;13.80;75.30;;;;;;5014415;28;20040;-56
2022/05/02 04:03:26;;;;;;;27.88;24.27;;;13.80;75.40;;;;;;5014314;28;20375;-57
2022/05/02 04:05:52;;;;;;;27.05;24.20;;;13.80;75.50;;;;;;5014718;28;20490;-62
2022/05/02 04:08:17;;;;;;;28.35;25.35;;;13.80;75.40;;;;;;5014292;28;20494;-62
2022/05/02 04:10:43;;;;;;;27.90;25.05;;;13.70;75.60;;;;;;5014500;28;20022;-62
2022/05/02 04:13:09;;;;;;;28.02;25.00;;;13.70;75.80;;;;;;5014228;28;20033;-63
2022/05/02 04:15:35;;;;;;;29.23;26.02;;;13.70;75.90;;;;;;5014136;28;20093;-63
2022/05/02 04:18:01;;;;;;;26.75;24.05;;;13.70;75.60;;;;;;5014189;28;20037;-61
2022/05/02 04:20:27;;;;;;;29.58;25.60;;;13.60;75.80;;;;;;5014351;28;20132;-62
2022/05/02 04:22:52;;;;;;;26.85;23.95;;;13.60;75.80;;;;;;5013939;28;20379;-63
2022/05/02 04:25:18;;;;;;;27.10;24.20;;;13.60;75.80;;;;;;4975254;28;1125367;-62
2022/05/02 04:27:43;;;;;;;26.65;23.77;;;13.60;76.00;;;;;;5014794;28;20109;-62
2022/05/02 04:30:11;;;;;;;27.80;24.90;;;13.60;76.00;;;;;;5015128;28;20048;-60
2022/05/02 04:32:37;;;;;;;25.40;22.70;;;13.60;76.00;;;;;;5014960;28;20028;-62
2022/05/02 04:35:03;;;;;;;25.77;22.80;;;13.60;76.00;;;;;;5015011;28;20101;-62
2022/05/02 04:37:29;;;;;;;25.85;23.15;;;13.60;76.20;;;;;;5014521;28;20041;-59
2022/05/02 04:39:55;;;;;;;26.90;24.02;;;13.60;76.30;;;;;;5014912;28;20021;-62
2022/05/02 04:42:20;;;;;;;26.90;24.13;;;13.50;76.30;;;;;;5014975;28;20079;-62
2022/05/02 04:44:46;;;;;;;26.05;23.13;;;13.50;76.50;;;;;;5014734;28;20104;-63
2022/05/02 04:47:11;;;;;;;26.27;23.35;;;13.50;76.70;;;;;;5010995;28;20033;-62
2022/05/02 04:49:37;;;;;;;24.85;22.20;;;13.60;76.70;;;;;;5012567;28;20497;-63
2022/05/02 04:52:03;;;;;;;26.75;21.92;;;13.60;76.80;;;;;;5014011;28;20038;-62
2022/05/02 04:54:28;;;;;;;26.60;23.23;;;13.60;77.30;;;;;;5014544;28;20041;-62
2022/05/02 04:56:54;;;;;;;24.70;21.95;;;13.60;77.20;;;;;;5012189;28;20097;-62
2022/05/02 04:59:20;;;;;;;25.83;22.83;;;13.70;77.20;;;;;;5013868;28;20030;-62
2022/05/02 05:01:45;;;;;;;25.02;21.83;;;13.70;77.20;;;;;;5011659;28;20033;-62
2022/05/02 05:04:11;;;;;;;24.25;21.83;;;13.70;77.30;;;;;;5011156;28;20072;-62
2022/05/02 05:06:36;;;;;;;26.60;23.80;;;13.60;77.70;;;;;;5012077;28;20399;-62
2022/05/02 05:09:03;;;;;;;27.70;23.45;;;13.60;77.70;;;;;;5013714;28;20022;-61
2022/05/02 05:11:36;;;;;;;24.45;21.85;;;13.70;77.60;;;;;;5013011;28;20111;-62
2022/05/02 05:17:34;;;;;;;29.92;22.92;;;13.60;77.60;;;;;;5013168;28;20044;-62
2022/05/02 05:20:00;;;;;;;25.23;21.85;;;13.70;77.80;;;;;;5010032;28;20033;-61
2022/05/02 05:22:44;;;;;;;27.58;24.63;;;13.70;78.10;;;;;;5010852;28;20029;-61
2022/05/02 05:25:35;;;;;;;28.77;23.15;;;13.70;78.30;;;;;;5010106;28;20025;-63
2022/05/02 05:28:21;;;;;;;25.30;22.60;;;13.60;78.10;;;;;;5008186;28;20041;-62
2022/05/02 05:30:52;;;;;;;27.75;22.95;;;13.60;78.10;;;;;;5013285;28;20108;-63
2022/05/02 05:33:29;;;;;;;26.58;23.75;;;13.70;78.30;;;;;;5010851;28;20022;-58
2022/05/02 05:36:32;;;;;;;28.45;24.83;;;13.70;78.10;;;;;;5013241;28;20045;-62
2022/05/02 05:39:04;;;;;;;28.83;24.45;;;13.70;78.20;;;;;;5008377;28;20025;-62
2022/05/02 05:42:03;;;;;;;29.00;24.30;;;13.70;78.00;;;;;;5011394;28;20060;-62
2022/05/02 05:44:53;;;;;;;27.13;24.27;;;13.70;77.60;;;;;;5010230;28;20022;-63
2022/05/02 05:47:40;;;;;;;30.10;24.08;;;13.70;78.00;;;;;;5007079;28;20030;-59
2022/05/02 05:50:09;;;;;;;28.40;24.75;;;13.80;78.20;;;;;;5008021;28;20053;-62
2022/05/02 05:52:45;;;;;;;30.20;25.00;;;13.80;78.00;;;;;;5008592;28;20037;-61
2022/05/02 05:55:26;;;;;;;29.23;25.98;;;13.90;78.10;;;;;;5008201;28;20028;-63
2022/05/02 05:57:55;;;;;;;29.55;26.08;;;13.90;77.80;;;;;;5008419;28;20092;-60
2022/05/02 06:00:22;;;;;;;29.08;24.42;;;13.90;77.50;;;;;;5001782;28;20034;-64
2022/05/02 06:02:57;;;;;;;27.17;23.33;;;13.90;77.30;;;;;;5010970;28;20018;-61
2022/05/02 06:05:23;;;;;;;29.85;24.20;;;14.00;77.10;;;;;;5008349;28;20392;-62
2022/05/02 06:07:51;;;;;;;25.98;22.58;;;14.00;76.60;;;;;;5010503;28;20026;-60
2022/05/02 06:10:17;;;;;;;25.95;23.30;;;14.00;77.10;;;;;;5010652;28;20026;-59
2022/05/02 06:12:44;;;;;;;25.73;21.73;;;14.10;75.70;;;;;;5011137;28;20092;-61
2022/05/02 06:20:45;;;;;;;29.38;23.88;;;14.20;74.40;;;;;;4993572;28;20081;-62
2022/05/02 06:23:14;;;;;;;27.13;23.88;;;14.30;74.30;;;;;;4993299;28;20034;-62
2022/05/02 06:25:41;;;;;;;26.35;23.30;;;14.40;74.20;;;;;;4991945;28;20112;-62
2022/05/02 06:28:08;;;;;;;28.58;24.50;;;14.30;74.30;;;;;;4993681;28;20073;-62
2022/05/02 06:30:41;;;;;;;27.33;24.35;;;14.40;74.00;;;;;;4993536;28;20080;-62
2022/05/02 06:33:11;;;;;;;27.88;23.45;;;14.40;74.10;;;;;;4993286;28;20022;-62
2022/05/02 06:36:02;;;;;;;26.33;23.42;;;14.50;73.80;;;;;;4993141;28;20034;-62
2022/05/02 06:38:50;;;;;;;30.13;23.40;;;14.50;73.80;;;;;;4993641;28;20124;-57
2022/05/02 06:41:53;;;;;;;31.25;25.10;;;14.60;73.70;;;;;;4993355;28;20523;-61
2022/05/02 06:44:46;;;;;;;27.38;23.65;;;14.60;73.60;;;;;;4993630;28;20476;-61
2022/05/02 06:47:39;;;;;;;29.58;24.08;;;14.70;73.70;;;;;;4993261;28;20023;-62
2022/05/02 06:50:07;;;;;;;27.52;24.52;;;14.80;73.40;;;;;;4993383;28;20030;-58
2022/05/02 06:52:50;;;;;;;29.98;24.08;;;14.80;74.00;;;;;;4992301;28;20022;-62
2022/05/02 06:55:38;;;;;;;27.23;23.08;;;14.90;73.60;;;;;;4993303;28;20022;-61
2022/05/02 06:58:20;;;;;;;27.00;23.48;;;14.90;73.20;;;;;;4993379;28;20034;-61
2022/05/02 07:01:05;;;;;;;26.23;23.15;;;15.00;72.80;;;;;;4993110;28;20027;-62
2022/05/02 07:03:42;;;;;;;27.33;23.27;;;15.10;72.30;;;;;;4992993;28;20046;-61
2022/05/02 07:06:22;;;;;;;24.05;21.52;;;15.10;72.40;;;;;;4993382;28;20110;-61
2022/05/02 07:09:04;;;;;;;25.15;22.35;;;15.10;72.10;;;;;;5008703;28;20434;-61
2022/05/02 07:12:11;;;;;;;24.48;21.50;;;15.20;71.90;;;;;;5025130;28;20471;-62
2022/05/02 07:15:01;;;;;;;23.15;20.65;;;15.30;71.70;;;;;;5018208;28;20025;-60
2022/05/02 07:17:59;;;;;;;26.17;20.60;;;15.30;71.20;;;;;;5016042;28;20042;-62
2022/05/02 07:20:32;;;;;;;24.08;21.33;;;15.40;70.10;;;;;;5004702;28;20033;-61
2022/05/02 07:23:16;;;;;;;23.50;20.25;;;15.50;70.10;;;;;;5025970;28;20049;-61
2022/05/02 07:25:50;;;;;;;24.40;20.27;;;15.50;69.30;;;;;;5030456;28;20044;-62
2022/05/02 07:28:49;;;;;;;27.35;21.42;;;15.60;69.80;;;;;;5017864;28;20108;-62
2022/05/02 07:31:20;;;;;;;22.58;19.23;;;15.60;69.80;;;;;;5022613;28;20105;-60
2022/05/02 07:33:48;;;;;;;22.55;19.63;;;15.70;69.70;;;;;;5031083;28;20025;-61
2022/05/02 07:36:19;;;;;;;26.63;21.15;;;15.70;69.10;;;;;;5017852;28;20052;-61
2022/05/02 07:38:48;;;;;;;23.08;20.27;;;15.80;69.80;;;;;;5022415;28;20026;-61
2022/05/02 07:41:25;;;;;;;23.98;19.75;;;15.90;70.30;;;;;;5023195;28;20116;-62
2022/05/02 07:44:09;;;;;;;21.88;19.67;;;16.00;69.60;;;;;;5031251;28;20115;-60
2022/05/02 07:46:43;;;;;;;26.10;20.95;;;16.00;68.90;;;;;;5013821;28;20394;-62
2022/05/02 07:49:10;;;;;;;29.67;19.95;;;16.10;68.60;;;;;;5022104;28;20022;-59
2022/05/02 07:51:47;;;;;;;22.90;20.30;;;16.10;69.00;;;;;;5028727;28;20025;-62
2022/05/02 07:54:24;;;;;;;24.27;20.08;;;16.30;67.70;;;;;;5018320;28;20122;-62
2022/05/02 07:57:01;;;;;;;21.52;19.35;;;16.30;67.60;;;;;;5025388;28;20044;-61
2022/05/02 07:59:35;;;;;;;21.77;18.98;;;16.40;68.10;;;;;;5027521;28;20105;-62
2022/05/02 08:02:01;;;;;;;23.90;19.33;;;16.40;66.60;;;;;;5017774;28;20029;-62
2022/05/02 08:04:27;;;;;;;22.95;17.65;;;16.40;66.10;;;;;;5029718;28;20357;-62
2022/05/02 08:07:35;;;;;;;21.33;17.27;;;16.50;65.90;;;;;;5019381;28;20566;-60
2022/05/02 08:10:19;;;;;;;20.70;18.30;;;16.50;64.70;;;;;;5029483;28;20044;-62
2022/05/02 08:13:01;;;;;;;26.42;18.30;;;16.60;65.00;;;;;;5020491;28;20155;-58
2022/05/02 08:15:40;;;;;;;17.23;15.50;;;16.60;64.90;;;;;;5020333;28;20057;-62
2022/05/02 08:18:35;;;;;;;19.35;14.02;;;16.60;64.40;;;;;;5029609;28;20033;-62
2022/05/02 08:21:16;;;;;;;20.45;14.20;;;16.70;62.70;;;;;;5023475;28;20029;-62
2022/05/02 08:27:15;;;;;;;13.10;11.20;;;16.80;61.60;;;;;;5008859;28;20044;-59
2022/05/02 08:30:02;;;;;;;13.48;10.82;;;16.90;61.20;;;;;;5018885;28;20038;-61
2022/05/02 08:32:43;;;;;;;13.32;9.63;;;16.90;61.50;;;;;;5003298;28;20125;-63
2022/05/02 08:35:30;;;;;;;13.63;9.52;;;16.90;61.80;;;;;;5023186;28;20575;-61
2022/05/02 08:38:31;;;;;;;11.20;8.98;;;17.00;61.40;;;;;;5019292;28;20096;-62
2022/05/02 08:41:18;;;;;;;13.10;10.50;;;17.00;61.60;;;;;;5024678;28;20184;-63
2022/05/02 08:44:20;;;;;;;13.32;10.43;;;17.10;61.20;;;;;;5029034;28;20033;-62
2022/05/02 08:47:06;;;;;;;15.75;12.45;;;17.20;59.80;;;;;;5008731;28;20030;-62
2022/05/02 08:50:02;;;;;;;17.35;13.15;;;17.20;59.80;;;;;;5019699;28;20028;-62
2022/05/02 08:52:39;;;;;;;12.95;11.75;;;17.20;60.30;;;;;;5004254;28;20447;-57
2022/05/02 08:55:29;;;;;;;13.48;10.90;;;17.20;59.80;;;;;;5023196;28;20033;-62
2022/05/02 08:58:33;;;;;;;12.32;9.05;;;17.30;59.30;;;;;;5028450;28;20033;-61
2022/05/02 09:01:24;;;;;;;11.30;9.95;;;17.30;60.20;;;;;;5022623;28;20033;-62
2022/05/02 09:04:24;;;;;;;12.73;11.02;;;17.30;58.70;;;;;;5017245;28;20116;-62
2022/05/02 09:07:08;;;;;;;12.48;10.18;;;17.40;58.00;;;;;;5012225;28;20116;-63
2022/05/02 09:09:50;;;;;;;13.27;11.88;;;17.40;58.50;;;;;;5027237;28;20022;-60
2022/05/02 09:12:34;;;;;;;13.43;12.02;;;17.40;58.20;;;;;;5000165;28;20028;-61
2022/05/02 09:15:11;;;;;;;15.25;12.35;;;17.40;58.50;;;;;;5023387;28;20029;-62
2022/05/02 09:18:11;;;;;;;14.63;13.10;;;17.40;58.80;;;;;;5027030;28;20044;-62
2022/05/02 09:20:49;;;;;;;16.83;12.43;;;17.50;57.90;;;;;;5006375;28;20104;-62
2022/05/02 09:23:29;;;;;;;14.65;11.73;;;17.50;58.40;;;;;;5021092;28;20030;-59
2022/05/02 09:26:08;;;;;;;15.02;11.00;;;17.40;58.30;;;;;;5029406;28;20040;-59
2022/05/02 09:28:47;;;;;;;13.77;12.38;;;17.50;58.30;;;;;;5018467;28;20029;-58
2022/05/02 09:31:20;;;;;;;14.43;12.65;;;17.60;58.30;;;;;;5021745;28;20060;-60
2022/05/02 09:34:13;;;;;;;14.98;10.82;;;17.60;58.10;;;;;;5013742;28;20100;-59
2022/05/02 09:36:50;;;;;;;11.55;10.20;;;17.60;57.80;;;;;;5014015;28;20091;-62
2022/05/02 09:39:24;;;;;;;13.50;10.80;;;17.60;58.70;;;;;;5013754;28;20057;-62
2022/05/02 09:42:08;;;;;;;10.93;9.85;;;17.70;57.70;;;;;;5013314;28;20022;-62
2022/05/02 09:50:59;;;;;;;;;;;17.70;57.70;;;;;;5014026;28;20601;-61
2022/05/02 09:53:41;;;;;;;14.32;11.15;;;17.70;57.60;;;;;;5013840;28;19933;-62
2022/05/02 09:59:20;;;;;;;11.00;9.57;;;17.70;57.50;;;;;;5012861;28;20037;-61
2022/05/02 10:01:48;;;;;;;11.45;10.18;;;17.80;56.30;;;;;;5012848;28;20041;-61
2022/05/02 10:04:25;;;;;;;12.75;11.45;;;17.80;56.40;;;;;;5013362;28;20476;-60
2022/05/02 10:06:52;;;;;;;12.27;10.98;;;17.80;56.40;;;;;;5013548;28;20189;-61
2022/05/02 10:09:49;;;;;;;13.77;12.15;;;17.90;56.70;;;;;;5012429;28;20018;-59
2022/05/02 10:12:34;;;;;;;12.23;11.13;;;17.90;57.10;;;;;;5012936;28;20064;-61
2022/05/02 10:15:00;;;;;;;13.02;10.07;;;17.90;57.40;;;;;;4999549;28;20024;-61
2022/05/02 10:17:58;;;;;;;11.80;10.40;;;17.90;57.50;;;;;;5024550;28;20044;-61
2022/05/02 10:20:29;;;;;;;15.93;11.38;;;17.90;55.80;;;;;;5027380;28;20045;-62
2022/05/02 10:23:19;;;;;;;12.82;10.38;;;17.90;55.90;;;;;;5032813;28;20014;-61
2022/05/02 10:26:08;;;;;;;16.25;11.52;;;18.00;56.70;;;;;;5032428;28;20083;-61
2022/05/02 10:28:38;;;;;;;13.20;11.20;;;18.00;56.50;;;;;;5041309;28;20044;-61
2022/05/02 10:31:13;;;;;;;13.88;10.05;;;17.90;55.40;;;;;;5031892;28;20123;-61
2022/05/02 10:33:50;;;;;;;13.68;11.20;;;18.00;55.70;;;;;;5032801;28;20018;-61
2022/05/02 10:36:18;;;;;;;13.35;11.95;;;18.00;55.90;;;;;;5021921;28;20037;-58
2022/05/02 10:39:01;;;;;;;12.55;11.35;;;18.00;56.30;;;;;;5020346;28;20029;-59
2022/05/02 10:41:34;;;;;;;14.88;13.35;;;18.00;56.10;;;;;;5027494;28;20029;-61
2022/05/02 10:44:02;;;;;;;15.52;13.93;;;18.10;56.70;;;;;;5017584;28;20018;-61
2022/05/02 10:46:31;;;;;;;13.43;11.55;;;18.10;56.70;;;;;;5023194;28;20029;-60
2022/05/02 10:49:13;;;;;;;13.32;11.93;;;18.20;53.90;;;;;;5025068;28;20088;-60
2022/05/02 10:51:54;;;;;;;15.25;9.70;;;18.30;52.80;;;;;;5014648;28;20046;-61
2022/05/02 10:54:39;;;;;;;12.77;9.85;;;18.40;51.40;;;;;;5024212;28;20021;-59
2022/05/02 10:57:33;;;;;;;11.52;9.75;;;18.40;52.00;;;;;;5029547;28;20120;-60
2022/05/02 11:00:06;;;;;;;10.60;9.60;;;18.40;51.50;;;;;;5005868;28;20146;-59
2022/05/02 11:02:40;;;;;;;11.60;10.57;;;18.50;51.80;;;;;;5025919;28;20048;-59
2022/05/02 11:05:09;;;;;;;14.32;11.63;;;18.50;51.80;;;;;;5023753;28;20105;-59
2022/05/02 11:07:42;;;;;;;13.45;11.43;;;18.40;52.30;;;;;;5031993;28;20482;-59
2022/05/02 11:10:10;;;;;;;11.88;10.48;;;18.50;52.00;;;;;;5021023;28;20029;-61
2022/05/02 11:12:46;;;;;;;12.10;10.40;;;18.50;52.30;;;;;;5025066;28;20105;-61
2022/05/02 11:15:17;;;;;;;12.07;9.85;;;18.60;53.20;;;;;;5028747;28;20110;-61
2022/05/02 11:18:04;;;;;;;9.65;8.75;;;18.60;52.40;;;;;;5018312;28;20032;-62
2022/05/02 11:20:50;;;;;;;9.32;7.50;;;18.60;52.70;;;;;;5023402;28;20475;-60
2022/05/02 11:23:52;;;;;;;12.65;11.35;;;18.70;53.50;;;;;;5021109;28;20093;-58
2022/05/02 11:26:37;;;;;;;12.18;10.82;;;18.70;54.10;;;;;;5014455;28;20115;-60
2022/05/02 11:29:11;;;;;;;12.68;10.52;;;18.70;53.60;;;;;;5002478;28;20040;-59
2022/05/02 11:32:08;;;;;;;14.07;11.55;;;18.70;53.10;;;;;;5026284;28;20022;-61
2022/05/02 11:34:47;;;;;;;16.38;14.07;;;18.70;53.90;;;;;;5031329;28;20068;-60
2022/05/02 11:37:51;;;;;;;14.05;12.70;;;18.70;53.10;;;;;;5005468;28;20041;-60
2022/05/02 11:40:18;;;;;;;8.80;5.90;;;18.70;53.80;;;;;;5020036;28;20037;-61
2022/05/02 11:42:47;;;;;;;12.05;9.60;;;18.70;54.30;;;;;;5031346;28;20025;-59
2022/05/02 11:45:15;;;;;;;11.32;9.63;;;18.80;53.50;;;;;;5020271;28;20018;-61
2022/05/02 11:48:05;;;;;;;14.55;10.50;;;18.80;53.20;;;;;;5025964;28;20100;-59
2022/05/02 11:50:49;;;;;;;13.35;10.70;;;18.80;53.00;;;;;;5018403;28;20076;-61
2022/05/02 11:53:16;;;;;;;13.73;11.13;;;18.80;53.00;;;;;;5001783;28;20032;-61
2022/05/02 11:55:46;;;;;;;13.43;12.13;;;18.80;52.90;;;;;;5023587;28;20139;-59
2022/05/02 11:58:24;;;;;;;12.93;11.63;;;18.80;52.80;;;;;;5017342;28;20030;-60
2022/05/02 12:01:02;;;;;;;13.32;10.85;;;18.80;53.20;;;;;;5022013;28;20476;-60
2022/05/02 12:03:51;;;;;;;16.30;12.02;;;18.80;53.30;;;;;;5031634;28;20025;-60
2022/05/02 12:06:29;;;;;;;10.73;9.63;;;18.80;53.10;;;;;;5019894;28;20041;-60
2022/05/02 12:08:57;;;;;;;14.32;11.57;;;18.90;53.30;;;;;;5030874;28;20029;-60
2022/05/02 12:11:23;;;;;;;12.10;9.45;;;18.90;53.20;;;;;;5019933;28;20034;-60
2022/05/02 12:13:50;;;;;;;10.75;9.60;;;18.90;53.90;;;;;;5024293;28;20100;-61
2022/05/02 12:16:18;;;;;;;10.48;8.63;;;18.90;53.50;;;;;;5009068;28;20042;-61
2022/05/02 12:18:55;;;;;;;11.20;9.18;;;18.90;53.80;;;;;;5007388;28;20380;-61
2022/05/02 12:21:24;;;;;;;15.70;10.93;;;19.00;54.00;;;;;;5025938;28;20029;-62
2022/05/02 12:23:52;;;;;;;15.10;11.45;;;19.00;55.60;;;;;;5022910;28;20030;-62
2022/05/02 12:26:22;;;;;;;11.55;10.35;;;18.90;55.10;;;;;;5012593;28;20068;-61
2022/05/02 12:28:51;;;;;;;11.95;7.88;;;18.90;56.30;;;;;;5030149;28;20080;-62
2022/05/02 12:31:32;;;;;;;11.05;9.27;;;18.90;56.70;;;;;;5019083;28;20386;-60
2022/05/02 12:34:05;;;;;;;12.88;10.05;;;18.90;57.40;;;;;;5014806;28;20153;-60
2022/05/02 12:36:46;;;;;;;10.65;7.32;;;18.90;57.10;;;;;;5015882;28;20117;-62
2022/05/02 12:39:23;;;;;;;10.73;8.25;;;19.00;57.60;;;;;;4999116;28;20068;-63
2022/05/02 12:41:50;;;;;;;9.50;7.00;;;19.00;57.90;;;;;;5010075;28;20026;-60
2022/05/02 12:44:18;;;;;;;12.82;9.65;;;19.00;58.90;;;;;;5006058;28;20471;-61
2022/05/02 12:46:46;;;;;;;9.60;7.82;;;19.00;56.30;;;;;;5014136;28;20464;-62
2022/05/02 12:49:20;;;;;;;14.98;10.95;;;19.00;57.20;;;;;;5013813;28;20109;-62
2022/05/02 12:51:56;;;;;;;9.60;7.22;;;18.90;54.70;;;;;;5012106;28;20033;-62
2022/05/02 12:54:25;;;;;;;14.32;9.68;;;18.90;57.60;;;;;;5012913;28;20037;-62
2022/05/02 13:02:51;;;;;;;11.82;8.15;;;19.00;54.70;;;;;;5013638;28;20053;-62
2022/05/02 13:05:20;;;;;;;13.45;8.43;;;19.00;55.70;;;;;;5013126;28;20049;-61
2022/05/02 13:07:48;;;;;;;12.30;9.27;;;19.00;55.40;;;;;;5011029;28;20065;-62
2022/05/02 13:10:25;;;;;;;11.02;7.75;;;19.00;53.90;;;;;;5011522;28;20049;-62
2022/05/02 13:13:07;;;;;;;12.50;9.57;;;19.00;54.70;;;;;;5013627;28;20084;-62
2022/05/02 13:15:45;;;;;;;9.82;8.82;;;19.00;55.30;;;;;;5013756;28;20446;-63
2022/05/02 13:18:18;;;;;;;7.32;6.13;;;19.10;55.10;;;;;;5010640;28;20022;-60
2022/05/02 13:21:01;;;;;;;7.32;6.32;;;19.00;57.40;;;;;;5009446;28;20030;-62
2022/05/02 13:23:37;;;;;;;10.65;9.07;;;19.10;57.30;;;;;;5012954;28;20175;-62
2022/05/02 13:26:15;;;;;;;10.00;6.75;;;19.20;55.70;;;;;;5013093;28;20432;-62
2022/05/02 13:29:08;;;;;;;12.52;8.95;;;19.20;54.60;;;;;;5012114;28;20045;-62
2022/05/02 13:31:53;;;;;;;;;;;19.10;54.00;;;;;;5012483;28;20080;-62